createdAt,value
2019-03-23T00:00:46.688Z,35.27
2019-03-23T00:03:19.760Z,36.17
2019-03-23T00:05:53.158Z,35.90
2019-03-23T00:08:28.259Z,35.27
2019-03-23T00:11:02.808Z,36.57
2019-03-23T00:13:37.849Z,37.03
2019-03-23T00:16:10.836Z,35.33
2019-03-23T00:18:46.389Z,34.67
2019-03-23T00:21:20.918Z,34.93
2019-03-23T00:23:55.456Z,35.03
2019-03-23T00:26:28.979Z,36.07
2019-03-23T00:29:04.982Z,35.87
2019-03-23T00:31:39.045Z,34.70
2019-03-23T00:34:14.024Z,36.83
2019-03-23T00:36:50.130Z,32.70
2019-03-23T00:39:23.481Z,35.47
2019-03-23T00:41:58.181Z,34.50
2019-03-23T00:44:32.943Z,34.63
2019-03-23T00:47:09.265Z,34.60
2019-03-23T00:49:42.787Z,34.53
2019-03-23T00:52:17.316Z,36.43
2019-03-23T00:54:52.859Z,35.47
2019-03-23T00:57:28.400Z,33.47
2019-03-23T01:00:03.138Z,32.87
2019-03-23T01:02:38.475Z,33.70
2019-03-23T01:05:11.975Z,32.73
2019-03-23T01:07:45.781Z,34.60
2019-03-23T01:10:19.586Z,33.13
2019-03-23T01:12:52.780Z,32.83
2019-03-23T01:15:27.090Z,33.93
2019-03-23T01:18:01.227Z,33.63
2019-03-23T01:20:35.423Z,31.07
2019-03-23T01:23:09.675Z,31.40
2019-03-23T01:25:46.718Z,31.97
2019-03-23T01:28:20.319Z,30.93
2019-03-23T01:30:54.286Z,32.33
2019-03-23T01:33:28.813Z,30.27
2019-03-23T01:36:03.355Z,30.63
2019-03-23T01:38:36.866Z,30.83
2019-03-23T01:41:10.388Z,32.10
2019-03-23T01:43:46.942Z,31.70
2019-03-23T01:46:21.461Z,32.03
2019-03-23T01:48:56.000Z,31.47
2019-03-23T01:51:30.114Z,30.70
2019-03-23T01:54:03.044Z,28.47
2019-03-23T01:56:37.093Z,31.20
2019-03-23T01:59:10.080Z,30.33
2019-03-23T02:01:45.629Z,30.53
2019-03-23T02:04:19.158Z,28.03
2019-03-23T02:06:57.944Z,34.23
2019-03-23T02:09:31.239Z,29.30
2019-03-23T02:12:06.075Z,31.90
2019-03-23T02:14:40.309Z,30.30
2019-03-23T02:17:16.342Z,29.53
2019-03-23T02:19:50.380Z,31.10
2019-03-23T02:22:25.920Z,30.10
2019-03-23T02:25:00.454Z,31.43
2019-03-23T02:27:35.246Z,29.83
2019-03-23T02:30:11.540Z,31.47
2019-03-23T02:32:45.528Z,29.70
2019-03-23T02:35:18.579Z,31.33
2019-03-23T02:37:53.111Z,34.10
2019-03-23T02:40:30.220Z,31.10
2019-03-23T02:43:07.225Z,30.70
2019-03-23T02:45:43.148Z,31.43
2019-03-23T02:48:17.299Z,31.10
2019-03-23T02:50:50.350Z,29.73
2019-03-23T02:53:23.539Z,31.77
2019-03-23T02:55:57.871Z,30.73
2019-03-23T02:58:32.395Z,29.77
2019-03-23T03:01:06.188Z,30.50
2019-03-23T03:03:39.436Z,32.20
2019-03-23T03:06:13.180Z,31.43
2019-03-23T03:08:49.511Z,33.83
2019-03-23T03:11:23.454Z,31.07
2019-03-23T03:13:59.592Z,35.27
2019-03-23T03:16:35.573Z,32.57
2019-03-23T03:19:09.670Z,31.90
2019-03-23T03:21:43.998Z,33.20
2019-03-23T03:24:19.237Z,31.07
2019-03-23T03:26:53.452Z,30.40
2019-03-23T03:29:29.304Z,33.30
2019-03-23T03:32:01.882Z,32.00
2019-03-23T03:34:34.259Z,31.00
2019-03-23T03:37:07.337Z,31.00
2019-03-23T03:39:42.879Z,31.17
2019-03-23T03:42:17.407Z,30.33
2019-03-23T03:44:49.477Z,30.40
2019-03-23T03:47:22.433Z,29.97
2019-03-23T03:50:00.979Z,29.67
2019-03-23T03:52:35.537Z,30.63
2019-03-23T03:55:08.585Z,33.47
2019-03-23T03:57:41.368Z,27.33
2019-03-23T04:00:16.104Z,30.27
2019-03-23T04:02:50.000Z,30.60
2019-03-23T04:05:23.143Z,31.67
2019-03-23T04:08:09.883Z,31.63
2019-03-23T04:10:31.417Z,31.83
2019-03-23T04:13:05.731Z,31.63
2019-03-23T04:15:41.268Z,34.07
2019-03-23T04:18:17.339Z,30.87
2019-03-23T04:20:50.938Z,31.73
2019-03-23T04:23:25.286Z,31.47
2019-03-23T04:25:59.982Z,33.33
2019-03-23T04:28:32.929Z,32.07
2019-03-23T04:31:07.476Z,32.80
2019-03-23T04:33:42.991Z,32.67
2019-03-23T04:36:16.849Z,32.10
2019-03-23T04:38:49.831Z,32.33
2019-03-23T04:41:24.568Z,33.73
2019-03-23T04:43:57.643Z,31.90
2019-03-23T04:46:30.833Z,31.33
2019-03-23T04:49:05.128Z,33.77
2019-03-23T04:51:43.570Z,32.43
2019-03-23T04:54:20.859Z,31.23
2019-03-23T04:56:55.791Z,31.47
2019-03-23T04:59:29.313Z,31.67
2019-03-23T05:02:05.865Z,31.47
2019-03-23T05:04:39.392Z,32.33
2019-03-23T05:07:15.413Z,30.40
2019-03-23T05:09:51.482Z,31.30
2019-03-23T05:12:25.006Z,30.97
2019-03-23T05:14:58.522Z,31.73
2019-03-23T05:17:32.492Z,30.97
2019-03-23T05:20:06.588Z,30.37
2019-03-23T05:22:40.099Z,30.27
2019-03-23T05:25:22.697Z,28.40
2019-03-23T05:27:59.265Z,31.63
2019-03-23T05:30:33.387Z,28.97
2019-03-23T05:33:08.350Z,28.93
2019-03-23T05:35:41.396Z,29.80
2019-03-23T05:38:16.635Z,27.87
2019-03-23T05:40:50.644Z,28.60
2019-03-23T05:43:23.219Z,28.93
2019-03-23T05:45:59.975Z,29.10
2019-03-23T05:48:34.723Z,28.90
2019-03-23T05:51:08.731Z,29.00
2019-03-23T05:53:48.615Z,27.53
2019-03-23T05:56:24.158Z,29.97
2019-03-23T05:58:58.688Z,27.90
2019-03-23T06:01:33.589Z,28.10
2019-03-23T06:04:08.211Z,28.97
2019-03-23T06:06:44.301Z,29.33
2019-03-23T06:09:22.775Z,29.23
2019-03-23T06:11:56.394Z,29.07
2019-03-23T06:14:32.947Z,29.23
2019-03-23T06:17:06.852Z,28.63
2019-03-23T06:19:40.247Z,29.77
2019-03-23T06:22:17.128Z,28.73
2019-03-23T06:24:50.521Z,29.67
2019-03-23T06:27:23.584Z,29.07
2019-03-23T06:29:58.351Z,29.20
2019-03-23T06:32:34.188Z,30.60
2019-03-23T06:35:09.633Z,29.00
2019-03-23T06:37:44.256Z,27.17
2019-03-23T06:40:19.273Z,28.73
2019-03-23T06:42:59.715Z,28.33
2019-03-23T06:45:32.401Z,27.87
2019-03-23T06:48:06.662Z,28.30
2019-03-23T06:50:41.680Z,27.77
2019-03-23T06:53:15.968Z,27.27
2019-03-23T06:55:54.006Z,29.53
2019-03-23T06:58:27.601Z,29.57
2019-03-23T07:01:04.071Z,29.80
2019-03-23T07:03:38.922Z,28.87
2019-03-23T07:06:13.676Z,28.80
2019-03-23T07:08:51.239Z,28.23
2019-03-23T07:11:26.661Z,28.60
2019-03-23T07:14:02.328Z,27.23
2019-03-23T07:16:35.096Z,28.50
2019-03-23T07:19:10.376Z,29.27
2019-03-23T07:21:45.919Z,29.13
2019-03-23T07:24:19.994Z,29.33
2019-03-23T07:26:53.806Z,28.77
2019-03-23T07:29:28.828Z,27.20
2019-03-23T07:32:05.965Z,28.20
2019-03-23T07:34:40.596Z,27.80
2019-03-23T07:37:14.774Z,28.83
2019-03-23T07:39:49.169Z,27.43
2019-03-23T07:42:22.154Z,27.37
2019-03-23T07:44:56.171Z,28.23
2019-03-23T07:47:31.816Z,27.00
2019-03-23T07:50:07.667Z,28.13
2019-03-23T07:52:42.904Z,26.10
2019-03-23T07:55:22.446Z,27.17
2019-03-23T07:57:58.448Z,26.43
2019-03-23T08:00:33.989Z,25.80
2019-03-23T08:03:07.509Z,25.53
2019-03-23T08:05:43.053Z,26.03
2019-03-23T08:08:16.586Z,25.57
2019-03-23T08:10:57.768Z,25.87
2019-03-23T08:13:32.254Z,24.50
2019-03-23T08:16:07.221Z,23.03
2019-03-23T08:18:41.025Z,24.60
2019-03-23T08:21:14.280Z,24.53
2019-03-23T08:23:49.256Z,25.60
2019-03-23T08:26:23.876Z,24.73
2019-03-23T08:28:57.511Z,24.70
2019-03-23T08:31:32.919Z,24.60
2019-03-23T08:34:13.498Z,24.83
2019-03-23T08:36:55.286Z,24.73
2019-03-23T08:39:34.406Z,24.37
2019-03-23T08:42:09.445Z,23.53
2019-03-23T08:44:43.250Z,23.50
2019-03-23T08:47:18.795Z,24.03
2019-03-23T08:49:54.543Z,24.43
2019-03-23T08:52:34.294Z,23.80
2019-03-23T08:55:10.968Z,22.83
2019-03-23T08:57:46.611Z,22.67
2019-03-23T09:00:20.534Z,23.27
2019-03-23T09:02:54.057Z,21.80
2019-03-23T09:05:27.584Z,21.73
2019-03-23T09:08:01.098Z,20.87
2019-03-23T09:10:38.669Z,20.50
2019-03-23T09:13:12.918Z,20.93
2019-03-23T09:15:54.301Z,18.97
2019-03-23T09:18:30.996Z,19.77
2019-03-23T09:21:07.269Z,20.30
2019-03-23T09:23:42.918Z,20.03
2019-03-23T09:26:21.028Z,19.47
2019-03-23T09:28:59.127Z,19.83
2019-03-23T09:31:37.155Z,19.37
2019-03-23T09:34:18.758Z,19.23
2019-03-23T09:36:53.305Z,19.33
2019-03-23T09:39:31.330Z,19.30
2019-03-23T09:42:08.432Z,19.30
2019-03-23T09:44:45.719Z,18.73
2019-03-23T09:47:25.285Z,18.00
2019-03-23T09:49:58.621Z,17.73
2019-03-23T09:52:32.838Z,16.43
2019-03-23T09:55:09.128Z,15.57
2019-03-23T09:57:43.659Z,16.55
2019-03-23T10:00:18.189Z,14.83
2019-03-23T10:02:52.723Z,12.33
2019-03-23T10:05:27.252Z,10.87
2019-03-23T10:08:01.783Z,11.03
2019-03-23T10:10:37.325Z,11.23
2019-03-23T10:13:12.700Z,11.20
2019-03-23T10:15:47.564Z,9.97
2019-03-23T10:18:24.406Z,9.03
2019-03-23T10:21:00.871Z,9.23
2019-03-23T10:23:38.792Z,8.50
2019-03-23T10:26:19.120Z,7.57
2019-03-23T10:28:55.233Z,7.63
2019-03-23T10:31:28.730Z,6.50
2019-03-23T10:34:02.801Z,6.03
2019-03-23T10:36:39.478Z,6.60
2019-03-23T10:39:13.332Z,5.40
2019-03-23T10:41:49.889Z,4.37
2019-03-23T10:44:46.655Z,4.93
2019-03-23T10:47:24.202Z,4.03
2019-03-23T10:50:03.328Z,4.57
2019-03-23T10:52:42.876Z,4.50
2019-03-23T10:55:16.884Z,3.43
2019-03-23T10:57:52.425Z,4.57
2019-03-23T11:00:26.956Z,4.10
2019-03-23T11:03:03.744Z,3.87
2019-03-23T11:05:39.670Z,3.90
2019-03-23T11:08:14.591Z,3.63
2019-03-23T11:10:49.528Z,2.97
2019-03-23T11:13:23.655Z,3.80
2019-03-23T11:15:57.181Z,3.03
2019-03-23T11:18:37.821Z,3.33
2019-03-23T11:21:11.506Z,3.17
2019-03-23T11:23:45.818Z,3.50
2019-03-23T11:26:20.378Z,3.73
2019-03-23T11:28:58.930Z,4.17
2019-03-23T11:31:32.443Z,3.30
2019-03-23T11:34:17.233Z,4.33
2019-03-23T11:36:46.011Z,3.07
2019-03-23T11:39:24.330Z,3.23
2019-03-23T11:42:03.667Z,2.87
2019-03-23T11:44:39.767Z,3.23
2019-03-23T11:47:15.173Z,3.30
2019-03-23T11:49:52.859Z,3.10
2019-03-23T11:52:26.885Z,3.00
2019-03-23T11:55:04.975Z,3.07
2019-03-23T11:57:39.166Z,2.80
2019-03-23T12:00:18.114Z,3.13
2019-03-23T12:02:53.582Z,2.80
2019-03-23T12:05:33.309Z,3.57
2019-03-23T12:08:08.747Z,4.47
2019-03-23T12:10:44.761Z,2.77
2019-03-23T12:13:19.632Z,3.27
2019-03-23T12:15:53.029Z,2.50
2019-03-23T12:18:28.060Z,3.27
2019-03-23T12:21:01.877Z,2.53
2019-03-23T12:23:38.433Z,3.70
2019-03-23T12:26:10.706Z,2.43
2019-03-23T12:28:47.488Z,2.90
2019-03-23T12:31:23.054Z,2.63
2019-03-23T12:33:58.481Z,3.00
2019-03-23T12:36:34.329Z,3.20
2019-03-23T12:39:09.659Z,2.70
2019-03-23T12:41:45.826Z,3.27
2019-03-23T12:44:18.742Z,2.80
2019-03-23T12:46:56.316Z,2.80
2019-03-23T12:49:34.868Z,2.37
2019-03-23T12:52:08.828Z,2.20
2019-03-23T12:54:42.224Z,2.20
2019-03-23T12:57:18.701Z,2.63
2019-03-23T12:59:55.777Z,3.40
2019-03-23T13:02:31.548Z,2.40
2019-03-23T13:05:09.144Z,2.63
2019-03-23T13:07:44.159Z,2.00
2019-03-23T13:10:18.787Z,2.40
2019-03-23T13:12:53.717Z,2.30
2019-03-23T13:15:28.259Z,3.03
2019-03-23T13:18:03.080Z,3.72
2019-03-23T13:20:39.938Z,2.00
2019-03-23T13:23:12.780Z,3.27
2019-03-23T13:25:46.380Z,3.00
2019-03-23T13:28:20.327Z,2.80
2019-03-23T13:30:58.230Z,2.87
2019-03-23T13:33:32.447Z,2.20
2019-03-23T13:36:07.067Z,3.13
2019-03-23T13:38:40.259Z,2.23
2019-03-23T13:41:15.087Z,2.63
2019-03-23T13:43:50.115Z,1.90
2019-03-23T13:46:25.167Z,2.73
2019-03-23T13:49:00.404Z,2.10
2019-03-23T13:51:34.758Z,2.30
2019-03-23T13:54:09.253Z,2.60
2019-03-23T13:56:43.266Z,2.77
2019-03-23T13:59:18.073Z,2.87
2019-03-23T14:01:59.916Z,2.83
2019-03-23T14:04:38.536Z,2.23
2019-03-23T14:07:13.008Z,2.67
2019-03-23T14:09:53.617Z,2.10
2019-03-23T14:12:28.140Z,2.37
2019-03-23T14:15:01.664Z,2.77
2019-03-23T14:17:56.900Z,3.97
2019-03-23T14:20:34.188Z,2.30
2019-03-23T14:23:08.491Z,2.70
2019-03-23T14:25:42.615Z,3.50
2019-03-23T14:28:16.545Z,2.75
2019-03-23T14:30:50.062Z,3.20
2019-03-23T14:33:25.635Z,2.80
2019-03-23T14:36:27.125Z,2.75
2019-03-23T14:39:01.544Z,3.13
2019-03-23T14:41:35.964Z,2.63
2019-03-23T14:44:12.230Z,2.72
2019-03-23T14:46:47.558Z,2.20
2019-03-23T14:49:20.659Z,2.80
2019-03-23T14:51:55.608Z,2.23
2019-03-23T14:54:32.567Z,1.97
2019-03-23T14:57:06.687Z,2.60
2019-03-23T14:59:41.815Z,2.50
2019-03-23T15:02:19.794Z,2.13
2019-03-23T15:05:01.797Z,2.40
2019-03-23T15:07:38.391Z,3.58
2019-03-23T15:10:11.986Z,3.03
2019-03-23T15:12:48.018Z,3.37
2019-03-23T15:15:21.543Z,2.30
2019-03-23T15:17:57.705Z,2.87
2019-03-23T15:20:36.694Z,2.60
2019-03-23T15:23:30.401Z,2.53
2019-03-23T15:26:03.901Z,3.27
2019-03-23T15:28:49.192Z,2.63
2019-03-23T15:31:25.666Z,3.03
2019-03-23T15:34:00.065Z,3.87
2019-03-23T15:36:40.835Z,2.87
2019-03-23T15:42:39.433Z,2.90
2019-03-23T15:45:15.326Z,3.00
2019-03-23T15:48:05.002Z,2.63
2019-03-23T15:50:42.569Z,3.30
2019-03-23T15:53:23.537Z,2.20
2019-03-23T15:56:01.782Z,2.60
2019-03-23T15:58:35.257Z,3.10
2019-03-23T16:01:11.312Z,3.73
2019-03-23T16:03:50.651Z,2.93
2019-03-23T16:06:24.904Z,2.77
2019-03-23T16:09:27.243Z,3.53
2019-03-23T16:11:39.426Z,2.40
2019-03-23T16:14:18.358Z,3.20
2019-03-23T16:16:58.094Z,3.13
2019-03-23T16:19:35.181Z,2.83
2019-03-23T16:22:12.087Z,3.07
2019-03-23T16:24:46.881Z,2.77
2019-03-23T16:27:23.975Z,2.87
2019-03-23T16:29:57.155Z,2.57
2019-03-23T16:32:37.170Z,2.73
2019-03-23T16:35:14.593Z,3.10
2019-03-23T16:37:50.593Z,3.17
2019-03-23T16:40:24.113Z,2.67
2019-03-23T16:43:09.332Z,2.07
2019-03-23T16:45:45.594Z,2.17
2019-03-23T16:48:23.086Z,2.97
2019-03-23T16:50:58.739Z,3.00
2019-03-23T16:53:36.648Z,3.23
2019-03-23T16:56:17.014Z,3.80
2019-03-23T16:58:53.710Z,3.43
2019-03-23T17:01:31.151Z,2.90
2019-03-23T17:04:05.199Z,2.87
2019-03-23T17:06:46.322Z,3.73
2019-03-23T17:09:15.271Z,2.60
2019-03-23T17:11:52.807Z,3.23
2019-03-23T17:14:31.037Z,2.50
2019-03-23T17:17:06.678Z,2.50
2019-03-23T17:19:40.691Z,2.37
2019-03-23T17:22:15.000Z,4.57
2019-03-23T17:24:48.093Z,3.20
2019-03-23T17:27:22.039Z,2.47
2019-03-23T17:29:56.933Z,2.73
2019-03-23T17:32:31.562Z,3.10
2019-03-23T17:35:04.625Z,2.80
2019-03-23T17:37:39.157Z,3.43
2019-03-23T17:40:16.248Z,3.97
2019-03-23T17:42:49.482Z,2.73
2019-03-23T17:45:23.765Z,2.73
2019-03-23T17:48:00.739Z,3.07
2019-03-23T17:50:34.844Z,2.50
2019-03-23T17:53:08.962Z,3.27
2019-03-23T17:55:42.899Z,3.33
2019-03-23T17:58:15.408Z,3.65
2019-03-23T18:00:49.942Z,4.53
2019-03-23T18:03:27.049Z,2.53
2019-03-23T18:06:08.655Z,3.50
2019-03-23T18:08:43.635Z,3.50
2019-03-23T18:11:17.478Z,3.43
2019-03-23T18:13:51.488Z,3.90
2019-03-23T18:16:27.954Z,2.73
2019-03-23T18:19:01.349Z,2.93
2019-03-23T18:21:38.312Z,3.63
2019-03-23T18:24:15.883Z,3.20
2019-03-23T18:26:50.346Z,2.93
2019-03-23T18:29:26.207Z,2.60
2019-03-23T18:32:02.060Z,3.20
2019-03-23T18:34:37.038Z,3.07
2019-03-23T18:37:12.593Z,4.40
2019-03-23T18:39:47.410Z,3.33
2019-03-23T18:42:25.680Z,3.53
2019-03-23T18:45:00.697Z,3.47
2019-03-23T18:47:37.845Z,3.13
2019-03-23T18:50:13.310Z,3.10
2019-03-23T18:52:46.418Z,17.20
2019-03-23T18:55:19.346Z,11.67
2019-03-23T18:57:53.881Z,9.53
2019-03-23T19:00:46.886Z,7.40
2019-03-23T19:03:20.345Z,5.33
2019-03-23T19:05:57.171Z,4.37
2019-03-23T19:08:31.196Z,5.07
2019-03-23T19:11:08.250Z,5.13
2019-03-23T19:13:44.942Z,5.10
2019-03-23T19:16:19.841Z,6.47
2019-03-23T19:18:53.365Z,5.57
2019-03-23T19:21:30.046Z,5.17
2019-03-23T19:24:04.451Z,4.77
2019-03-23T19:26:40.994Z,4.30
2019-03-23T19:29:18.564Z,4.07
2019-03-23T19:31:52.824Z,6.40
2019-03-23T19:34:26.839Z,3.80
2019-03-23T19:37:12.730Z,4.53
2019-03-23T19:39:57.627Z,5.33
2019-03-23T19:42:31.458Z,13.03
2019-03-23T19:45:08.976Z,10.13
2019-03-23T19:47:48.026Z,4.87
2019-03-23T19:50:22.081Z,4.93
2019-03-23T19:52:57.642Z,4.80
2019-03-23T19:55:33.734Z,4.30
2019-03-23T19:58:09.177Z,4.65
2019-03-23T20:00:46.267Z,5.28
2019-03-23T20:09:38.409Z,4.63
2019-03-23T20:12:08.741Z,3.87
2019-03-23T20:14:41.800Z,6.00
2019-03-23T20:17:14.245Z,5.57
2019-03-23T20:19:48.273Z,5.37
2019-03-23T20:22:18.668Z,4.20
2019-03-23T20:24:50.107Z,5.20
2019-03-23T20:27:24.936Z,4.97
2019-03-23T20:29:56.184Z,4.93
2019-03-23T20:32:38.471Z,6.47
2019-03-23T20:35:10.583Z,7.50
2019-03-23T20:38:09.476Z,8.60
2019-03-23T20:40:50.840Z,8.57
2019-03-23T20:44:09.776Z,8.20
2019-03-23T20:47:52.485Z,5.07
2019-03-23T20:51:16.299Z,4.60
2019-03-23T20:53:59.623Z,4.07
2019-03-23T20:56:31.479Z,4.53
2019-03-23T21:03:15.570Z,4.67
2019-03-23T21:06:22.701Z,4.20
2019-03-23T21:09:32.803Z,4.27
2019-03-23T21:12:59.964Z,4.80
2019-03-23T21:15:02.652Z,4.80
2019-03-23T21:18:21.782Z,5.17
2019-03-23T21:20:51.500Z,4.60
2019-03-23T21:23:39.685Z,5.03
2019-03-23T21:27:19.827Z,4.77
2019-03-23T21:30:22.065Z,4.93
2019-03-23T21:38:53.183Z,3.97
2019-03-23T21:42:03.595Z,4.67
2019-03-23T21:45:15.613Z,3.77
2019-03-23T21:48:06.483Z,4.60
2019-03-23T21:51:31.817Z,4.60
2019-03-23T21:54:24.420Z,5.30
2019-03-23T21:57:19.309Z,5.10
2019-03-23T21:59:57.446Z,4.80
2019-03-23T22:09:14.318Z,4.27
2019-03-23T22:11:48.632Z,3.47
2019-03-23T22:14:46.461Z,4.27
2019-03-23T22:17:17.333Z,4.37
2019-03-23T22:19:47.658Z,3.70
2019-03-23T22:23:02.181Z,4.00
2019-03-23T22:25:52.620Z,3.80
2019-03-23T22:28:44.843Z,3.23
2019-03-23T22:31:16.568Z,4.42
2019-03-23T22:33:57.430Z,4.37
2019-03-23T22:36:33.075Z,3.67
2019-03-23T22:39:34.340Z,3.87
2019-03-23T22:42:05.880Z,4.63
2019-03-23T22:44:51.850Z,3.67
2019-03-23T22:47:14.797Z,3.50
2019-03-23T22:50:30.404Z,3.73
2019-03-23T22:53:06.466Z,4.27
2019-03-23T22:56:28.402Z,4.53
2019-03-23T22:59:09.489Z,3.90
2019-03-23T23:01:43.721Z,3.93
2019-03-23T23:04:39.252Z,4.57
2019-03-23T23:07:09.645Z,6.70
2019-03-23T23:09:52.374Z,4.40
2019-03-23T23:12:39.377Z,4.07
2019-03-23T23:15:11.172Z,4.93
2019-03-23T23:17:44.234Z,5.17
2019-03-23T23:20:21.298Z,5.60
2019-03-23T23:22:54.116Z,5.60
2019-03-23T23:25:29.336Z,6.20
2019-03-23T23:28:14.823Z,5.17
2019-03-23T23:34:01.486Z,5.90
2019-03-23T23:36:36.711Z,4.27
2019-03-23T23:39:33.860Z,5.07
2019-03-23T23:42:30.990Z,3.97
2019-03-23T23:45:15.555Z,4.47
2019-03-23T23:48:19.420Z,4.77
2019-03-23T23:50:52.963Z,4.13
2019-03-23T23:56:30.429Z,4.40
